sensor_id;sensor_type;location;lat;lon;timestamp;noise_LAeq;noise_LA_min;noise_LA_max;noise_LA01;noise_LA95
40103;Laerm;25814;48.550;9.108;2024-03-07T00:00:10;30.49;28.86;34.70;;
40103;Laerm;25814;48.550;9.108;2024-03-07T00:02:45;30.52;28.99;38.26;;
40103;Laerm;25814;48.550;9.108;2024-03-07T00:05:11;30.66;28.99;39.53;;
40103;Laerm;25814;48.550;9.108;2024-03-07T00:07:41;30.48;29.03;34.55;;
40103;Laerm;25814;48.550;9.108;2024-03-07T00:10:09;30.49;28.94;35.16;;
40103;Laerm;25814;48.550;9.108;2024-03-07T00:12:37;30.49;28.95;34.56;;
40103;Laerm;25814;48.550;9.108;2024-03-07T00:15:07;30.55;28.96;35.02;;
40103;Laerm;25814;48.550;9.108;2024-03-07T00:17:34;30.42;28.84;34.61;;
40103;Laerm;25814;48.550;9.108;2024-03-07T00:20:01;34.10;29.04;46.60;;
40103;Laerm;25814;48.550;9.108;2024-03-07T00:22:29;30.59;28.86;34.68;;
40103;Laerm;25814;48.550;9.108;2024-03-07T00:24:56;30.45;28.78;37.04;;
40103;Laerm;25814;48.550;9.108;2024-03-07T00:27:22;30.41;28.90;34.80;;
40103;Laerm;25814;48.550;9.108;2024-03-07T00:29:49;30.58;28.91;39.05;;
40103;Laerm;25814;48.550;9.108;2024-03-07T00:32:22;30.94;28.97;35.12;;
40103;Laerm;25814;48.550;9.108;2024-03-07T00:34:49;30.93;29.24;38.94;;
40103;Laerm;25814;48.550;9.108;2024-03-07T00:37:16;30.89;28.97;34.89;;
40103;Laerm;25814;48.550;9.108;2024-03-07T00:39:43;31.57;29.33;37.03;;
40103;Laerm;25814;48.550;9.108;2024-03-07T00:42:09;31.75;29.12;37.96;;
40103;Laerm;25814;48.550;9.108;2024-03-07T00:44:36;31.00;29.13;35.22;;
40103;Laerm;25814;48.550;9.108;2024-03-07T00:47:03;32.88;29.07;42.78;;
40103;Laerm;25814;48.550;9.108;2024-03-07T00:49:30;32.27;29.62;38.47;;
40103;Laerm;25814;48.550;9.108;2024-03-07T00:51:58;33.97;29.81;42.68;;
40103;Laerm;25814;48.550;9.108;2024-03-07T00:54:24;35.30;29.95;44.57;;
40103;Laerm;25814;48.550;9.108;2024-03-07T00:56:51;32.54;29.36;37.94;;
40103;Laerm;25814;48.550;9.108;2024-03-07T00:59:17;32.02;29.18;38.12;;
40103;Laerm;25814;48.550;9.108;2024-03-07T01:01:43;31.71;29.60;40.08;;
40103;Laerm;25814;48.550;9.108;2024-03-07T01:04:09;32.04;29.58;36.43;;
40103;Laerm;25814;48.550;9.108;2024-03-07T01:06:35;31.96;29.86;38.23;;
40103;Laerm;25814;48.550;9.108;2024-03-07T01:09:02;31.66;29.50;37.31;;
40103;Laerm;25814;48.550;9.108;2024-03-07T01:11:28;31.57;29.46;35.67;;
40103;Laerm;25814;48.550;9.108;2024-03-07T01:13:55;31.43;29.46;37.85;;
40103;Laerm;25814;48.550;9.108;2024-03-07T01:16:24;30.98;29.09;35.84;;
40103;Laerm;25814;48.550;9.108;2024-03-07T01:21:24;34.63;29.10;47.19;;
40103;Laerm;25814;48.550;9.108;2024-03-07T01:23:51;31.15;29.22;40.92;;
40103;Laerm;25814;48.550;9.108;2024-03-07T01:26:17;31.00;29.07;35.93;;
40103;Laerm;25814;48.550;9.108;2024-03-07T01:28:43;31.41;29.13;36.95;;
40103;Laerm;25814;48.550;9.108;2024-03-07T01:31:09;31.35;29.22;35.63;;
40103;Laerm;25814;48.550;9.108;2024-03-07T01:33:36;31.40;29.14;43.64;;
40103;Laerm;25814;48.550;9.108;2024-03-07T01:36:02;33.10;30.18;37.78;;
40103;Laerm;25814;48.550;9.108;2024-03-07T01:38:30;32.39;29.24;39.62;;
40103;Laerm;25814;48.550;9.108;2024-03-07T01:40:56;31.00;28.99;35.09;;
40103;Laerm;25814;48.550;9.108;2024-03-07T01:43:22;31.65;29.12;42.54;;
40103;Laerm;25814;48.550;9.108;2024-03-07T01:45:54;30.76;29.11;34.91;;
40103;Laerm;25814;48.550;9.108;2024-03-07T01:48:28;30.58;28.99;34.79;;
40103;Laerm;25814;48.550;9.108;2024-03-07T01:50:56;30.84;29.03;38.66;;
40103;Laerm;25814;48.550;9.108;2024-03-07T01:53:22;30.92;29.20;35.03;;
40103;Laerm;25814;48.550;9.108;2024-03-07T01:55:50;32.29;29.61;42.14;;
40103;Laerm;25814;48.550;9.108;2024-03-07T01:58:19;30.71;29.16;34.72;;
40103;Laerm;25814;48.550;9.108;2024-03-07T02:00:46;30.73;29.17;34.72;;
40103;Laerm;25814;48.550;9.108;2024-03-07T02:03:17;30.80;29.03;34.92;;
40103;Laerm;25814;48.550;9.108;2024-03-07T02:05:44;30.68;28.91;34.64;;
40103;Laerm;25814;48.550;9.108;2024-03-07T02:08:11;31.05;29.12;43.48;;
40103;Laerm;25814;48.550;9.108;2024-03-07T02:10:37;31.05;29.06;38.26;;
40103;Laerm;25814;48.550;9.108;2024-03-07T02:13:04;30.75;29.08;45.46;;
40103;Laerm;25814;48.550;9.108;2024-03-07T02:15:30;30.74;29.07;34.92;;
40103;Laerm;25814;48.550;9.108;2024-03-07T02:17:56;31.02;29.22;35.64;;
40103;Laerm;25814;48.550;9.108;2024-03-07T02:20:23;34.21;29.29;47.57;;
40103;Laerm;25814;48.550;9.108;2024-03-07T02:22:49;31.39;29.45;45.10;;
40103;Laerm;25814;48.550;9.108;2024-03-07T02:25:16;31.39;29.28;39.72;;
40103;Laerm;25814;48.550;9.108;2024-03-07T02:27:42;31.40;29.02;36.24;;
40103;Laerm;25814;48.550;9.108;2024-03-07T02:30:11;31.30;29.33;44.24;;
40103;Laerm;25814;48.550;9.108;2024-03-07T02:32:38;30.70;29.13;34.49;;
40103;Laerm;25814;48.550;9.108;2024-03-07T02:35:05;30.88;29.17;40.78;;
40103;Laerm;25814;48.550;9.108;2024-03-07T02:37:31;31.29;29.44;44.27;;
40103;Laerm;25814;48.550;9.108;2024-03-07T02:39:58;31.43;29.41;39.97;;
40103;Laerm;25814;48.550;9.108;2024-03-07T02:42:24;31.23;29.22;45.11;;
40103;Laerm;25814;48.550;9.108;2024-03-07T02:44:50;30.91;29.20;34.87;;
40103;Laerm;25814;48.550;9.108;2024-03-07T02:47:18;31.05;29.24;39.86;;
40103;Laerm;25814;48.550;9.108;2024-03-07T02:49:44;30.66;29.14;34.55;;
40103;Laerm;25814;48.550;9.108;2024-03-07T02:52:10;30.76;29.02;34.88;;
40103;Laerm;25814;48.550;9.108;2024-03-07T02:54:36;30.73;28.96;35.68;;
40103;Laerm;25814;48.550;9.108;2024-03-07T02:57:02;30.84;29.14;35.30;;
40103;Laerm;25814;48.550;9.108;2024-03-07T02:59:28;30.72;29.05;38.02;;
40103;Laerm;25814;48.550;9.108;2024-03-07T03:01:54;30.70;28.97;34.91;;
40103;Laerm;25814;48.550;9.108;2024-03-07T03:04:21;30.58;28.92;34.93;;
40103;Laerm;25814;48.550;9.108;2024-03-07T03:06:47;30.70;29.12;34.53;;
40103;Laerm;25814;48.550;9.108;2024-03-07T03:09:13;30.64;29.07;34.56;;
40103;Laerm;25814;48.550;9.108;2024-03-07T03:11:44;30.65;29.14;34.49;;
40103;Laerm;25814;48.550;9.108;2024-03-07T03:14:12;30.68;28.97;36.71;;
40103;Laerm;25814;48.550;9.108;2024-03-07T03:16:42;30.60;29.01;34.69;;
40103;Laerm;25814;48.550;9.108;2024-03-07T03:19:08;30.66;29.14;38.74;;
40103;Laerm;25814;48.550;9.108;2024-03-07T03:21:35;30.61;29.15;34.56;;
40103;Laerm;25814;48.550;9.108;2024-03-07T03:24:01;30.60;29.17;34.56;;
40103;Laerm;25814;48.550;9.108;2024-03-07T03:26:28;30.72;29.08;36.92;;
40103;Laerm;25814;48.550;9.108;2024-03-07T03:28:54;30.66;29.13;36.13;;
40103;Laerm;25814;48.550;9.108;2024-03-07T03:31:20;30.69;29.05;38.04;;
40103;Laerm;25814;48.550;9.108;2024-03-07T03:33:46;30.95;29.19;49.67;;
40103;Laerm;25814;48.550;9.108;2024-03-07T03:36:13;30.72;28.83;34.86;;
40103;Laerm;25814;48.550;9.108;2024-03-07T03:38:39;31.09;29.47;41.60;;
40103;Laerm;25814;48.550;9.108;2024-03-07T03:41:06;31.14;29.42;34.92;;
40103;Laerm;25814;48.550;9.108;2024-03-07T03:43:32;31.17;29.56;35.01;;
40103;Laerm;25814;48.550;9.108;2024-03-07T03:45:58;31.16;29.58;36.36;;
40103;Laerm;25814;48.550;9.108;2024-03-07T03:48:25;31.09;29.55;34.62;;
40103;Laerm;25814;48.550;9.108;2024-03-07T03:50:52;36.38;30.28;49.74;;
40103;Laerm;25814;48.550;9.108;2024-03-07T03:53:19;36.32;29.94;47.51;;
40103;Laerm;25814;48.550;9.108;2024-03-07T03:55:45;31.23;29.74;34.94;;
40103;Laerm;25814;48.550;9.108;2024-03-07T03:58:11;33.00;30.06;41.46;;
40103;Laerm;25814;48.550;9.108;2024-03-07T04:00:37;31.29;29.38;35.11;;
40103;Laerm;25814;48.550;9.108;2024-03-07T04:03:04;31.08;29.66;34.84;;
40103;Laerm;25814;48.550;9.108;2024-03-07T04:05:32;35.87;30.17;43.19;;
40103;Laerm;25814;48.550;9.108;2024-03-07T04:07:58;31.47;29.88;43.33;;
40103;Laerm;25814;48.550;9.108;2024-03-07T04:10:24;32.12;30.51;40.21;;
40103;Laerm;25814;48.550;9.108;2024-03-07T04:12:50;31.72;30.05;35.15;;
40103;Laerm;25814;48.550;9.108;2024-03-07T04:15:17;31.72;30.23;38.71;;
40103;Laerm;25814;48.550;9.108;2024-03-07T04:17:43;31.67;30.01;34.90;;
40103;Laerm;25814;48.550;9.108;2024-03-07T04:20:11;31.52;30.09;35.06;;
40103;Laerm;25814;48.550;9.108;2024-03-07T04:22:38;31.53;29.87;35.49;;
40103;Laerm;25814;48.550;9.108;2024-03-07T04:25:06;33.49;29.87;42.75;;
40103;Laerm;25814;48.550;9.108;2024-03-07T04:27:33;31.39;29.64;35.14;;
40103;Laerm;25814;48.550;9.108;2024-03-07T04:30:04;32.43;30.27;35.35;;
40103;Laerm;25814;48.550;9.108;2024-03-07T04:32:30;31.17;29.43;36.32;;
40103;Laerm;25814;48.550;9.108;2024-03-07T04:34:57;31.38;29.35;39.89;;
40103;Laerm;25814;48.550;9.108;2024-03-07T04:37:23;31.57;29.77;39.43;;
40103;Laerm;25814;48.550;9.108;2024-03-07T04:39:49;32.50;30.02;39.68;;
40103;Laerm;25814;48.550;9.108;2024-03-07T04:42:15;33.57;30.30;44.78;;
40103;Laerm;25814;48.550;9.108;2024-03-07T04:44:41;31.93;29.78;38.52;;
40103;Laerm;25814;48.550;9.108;2024-03-07T04:47:07;32.10;30.06;42.60;;
40103;Laerm;25814;48.550;9.108;2024-03-07T04:49:34;32.07;29.78;43.41;;
40103;Laerm;25814;48.550;9.108;2024-03-07T04:52:02;31.64;30.00;40.99;;
40103;Laerm;25814;48.550;9.108;2024-03-07T04:54:30;32.31;29.85;39.15;;
40103;Laerm;25814;48.550;9.108;2024-03-07T04:56:57;33.93;30.72;39.11;;
40103;Laerm;25814;48.550;9.108;2024-03-07T04:59:23;35.35;30.22;49.29;;
40103;Laerm;25814;48.550;9.108;2024-03-07T05:01:50;33.96;29.98;50.29;;
40103;Laerm;25814;48.550;9.108;2024-03-07T05:04:17;42.11;31.68;55.41;;
40103;Laerm;25814;48.550;9.108;2024-03-07T05:06:44;46.13;31.71;63.38;;
40103;Laerm;25814;48.550;9.108;2024-03-07T05:09:13;49.98;30.84;67.40;;
40103;Laerm;25814;48.550;9.108;2024-03-07T05:11:51;45.52;30.63;64.45;;
40103;Laerm;25814;48.550;9.108;2024-03-07T05:14:17;34.78;31.07;48.38;;
40103;Laerm;25814;48.550;9.108;2024-03-07T05:16:43;35.30;31.15;46.75;;
40103;Laerm;25814;48.550;9.108;2024-03-07T05:19:10;37.49;30.95;51.25;;
40103;Laerm;25814;48.550;9.108;2024-03-07T05:21:36;35.22;30.72;47.45;;
40103;Laerm;25814;48.550;9.108;2024-03-07T05:24:07;37.17;30.61;49.43;;
40103;Laerm;25814;48.550;9.108;2024-03-07T05:26:37;37.13;31.86;46.63;;
40103;Laerm;25814;48.550;9.108;2024-03-07T05:29:08;34.20;31.60;45.31;;
40103;Laerm;25814;48.550;9.108;2024-03-07T05:31:36;48.52;32.49;58.34;;
40103;Laerm;25814;48.550;9.108;2024-03-07T05:34:06;38.70;30.64;52.47;;
40103;Laerm;25814;48.550;9.108;2024-03-07T05:36:37;47.81;31.09;71.08;;
40103;Laerm;25814;48.550;9.108;2024-03-07T05:39:10;37.69;31.95;48.57;;
40103;Laerm;25814;48.550;9.108;2024-03-07T05:41:38;33.84;30.71;42.06;;
40103;Laerm;25814;48.550;9.108;2024-03-07T05:44:04;40.21;31.00;60.96;;
40103;Laerm;25814;48.550;9.108;2024-03-07T05:49:03;34.18;29.96;45.77;;
40103;Laerm;25814;48.550;9.108;2024-03-07T05:51:29;34.10;30.73;40.03;;
40103;Laerm;25814;48.550;9.108;2024-03-07T05:53:55;35.30;30.85;46.23;;
40103;Laerm;25814;48.550;9.108;2024-03-07T05:56:21;40.09;30.51;60.57;;
40103;Laerm;25814;48.550;9.108;2024-03-07T05:58:47;34.59;30.88;54.92;;
40103;Laerm;25814;48.550;9.108;2024-03-07T06:01:14;34.89;31.00;49.88;;
40103;Laerm;25814;48.550;9.108;2024-03-07T06:03:41;38.19;32.21;49.13;;
40103;Laerm;25814;48.550;9.108;2024-03-07T06:06:07;37.55;31.43;59.20;;
40103;Laerm;25814;48.550;9.108;2024-03-07T06:08:37;44.00;31.40;59.11;;
40103;Laerm;25814;48.550;9.108;2024-03-07T06:11:08;41.52;30.56;56.67;;
40103;Laerm;25814;48.550;9.108;2024-03-07T06:13:34;36.23;30.88;46.12;;
40103;Laerm;25814;48.550;9.108;2024-03-07T06:16:00;50.60;31.92;68.48;;
40103;Laerm;25814;48.550;9.108;2024-03-07T06:18:30;40.99;30.61;60.81;;
40103;Laerm;25814;48.550;9.108;2024-03-07T06:20:57;34.70;30.61;50.50;;
40103;Laerm;25814;48.550;9.108;2024-03-07T06:23:23;42.79;30.44;63.99;;
40103;Laerm;25814;48.550;9.108;2024-03-07T06:25:49;35.84;30.86;44.05;;
40103;Laerm;25814;48.550;9.108;2024-03-07T06:28:17;37.76;32.76;55.88;;
40103;Laerm;25814;48.550;9.108;2024-03-07T06:30:45;40.39;30.53;62.11;;
40103;Laerm;25814;48.550;9.108;2024-03-07T06:33:13;50.94;31.41;65.01;;
40103;Laerm;25814;48.550;9.108;2024-03-07T06:35:40;41.48;30.69;56.00;;
40103;Laerm;25814;48.550;9.108;2024-03-07T06:38:08;38.64;31.31;56.40;;
40103;Laerm;25814;48.550;9.108;2024-03-07T06:40:36;39.34;31.47;53.58;;
40103;Laerm;25814;48.550;9.108;2024-03-07T06:43:03;40.77;32.98;62.93;;
40103;Laerm;25814;48.550;9.108;2024-03-07T06:45:35;40.16;32.03;59.41;;
40103;Laerm;25814;48.550;9.108;2024-03-07T06:48:07;39.93;31.95;53.65;;
40103;Laerm;25814;48.550;9.108;2024-03-07T06:50:34;40.87;31.45;59.56;;
40103;Laerm;25814;48.550;9.108;2024-03-07T06:53:01;35.77;32.81;48.28;;
40103;Laerm;25814;48.550;9.108;2024-03-07T06:55:27;42.60;31.17;61.22;;
40103;Laerm;25814;48.550;9.108;2024-03-07T06:57:54;37.19;31.11;52.07;;
40103;Laerm;25814;48.550;9.108;2024-03-07T07:00:20;39.11;30.88;50.40;;
40103;Laerm;25814;48.550;9.108;2024-03-07T07:02:48;39.94;31.74;60.89;;
40103;Laerm;25814;48.550;9.108;2024-03-07T07:05:14;38.55;33.03;55.59;;
40103;Laerm;25814;48.550;9.108;2024-03-07T07:07:41;43.80;31.93;62.83;;
40103;Laerm;25814;48.550;9.108;2024-03-07T07:10:09;52.20;31.67;64.99;;
40103;Laerm;25814;48.550;9.108;2024-03-07T07:12:50;51.11;32.05;66.59;;
40103;Laerm;25814;48.550;9.108;2024-03-07T07:15:20;41.34;32.71;57.14;;
40103;Laerm;25814;48.550;9.108;2024-03-07T07:17:47;38.73;31.95;50.37;;
40103;Laerm;25814;48.550;9.108;2024-03-07T07:20:17;39.66;31.32;67.94;;
40103;Laerm;25814;48.550;9.108;2024-03-07T07:22:45;42.81;31.76;61.63;;
40103;Laerm;25814;48.550;9.108;2024-03-07T07:25:13;38.50;31.28;55.84;;
40103;Laerm;25814;48.550;9.108;2024-03-07T07:27:49;42.09;32.46;58.29;;
40103;Laerm;25814;48.550;9.108;2024-03-07T07:30:19;35.99;31.78;54.39;;
40103;Laerm;25814;48.550;9.108;2024-03-07T07:32:46;38.08;31.77;50.03;;
40103;Laerm;25814;48.550;9.108;2024-03-07T07:35:12;38.46;31.38;61.69;;
40103;Laerm;25814;48.550;9.108;2024-03-07T07:37:39;41.00;31.53;58.71;;
40103;Laerm;25814;48.550;9.108;2024-03-07T07:40:07;45.14;32.16;56.36;;
40103;Laerm;25814;48.550;9.108;2024-03-07T07:42:38;42.24;31.62;61.01;;
40103;Laerm;25814;48.550;9.108;2024-03-07T07:45:06;35.64;30.90;53.49;;
40103;Laerm;25814;48.550;9.108;2024-03-07T07:47:33;33.44;30.91;51.37;;
40103;Laerm;25814;48.550;9.108;2024-03-07T07:50:03;32.79;30.95;43.10;;
40103;Laerm;25814;48.550;9.108;2024-03-07T07:52:32;34.34;30.97;51.82;;
40103;Laerm;25814;48.550;9.108;2024-03-07T07:54:58;53.04;31.20;80.62;;
40103;Laerm;25814;48.550;9.108;2024-03-07T07:57:25;38.32;32.02;55.46;;
40103;Laerm;25814;48.550;9.108;2024-03-07T07:59:51;35.23;31.10;46.69;;
40103;Laerm;25814;48.550;9.108;2024-03-07T08:02:17;33.43;31.16;49.64;;
40103;Laerm;25814;48.550;9.108;2024-03-07T08:04:43;32.77;31.28;40.70;;
40103;Laerm;25814;48.550;9.108;2024-03-07T08:07:09;36.57;31.36;49.54;;
40103;Laerm;25814;48.550;9.108;2024-03-07T08:09:35;37.38;31.10;57.15;;
40103;Laerm;25814;48.550;9.108;2024-03-07T08:12:01;39.50;31.21;55.28;;
40103;Laerm;25814;48.550;9.108;2024-03-07T08:14:28;39.88;30.92;60.81;;
40103;Laerm;25814;48.550;9.108;2024-03-07T08:16:55;35.57;30.80;50.58;;
40103;Laerm;25814;48.550;9.108;2024-03-07T08:19:21;44.24;31.54;66.03;;
40103;Laerm;25814;48.550;9.108;2024-03-07T08:21:49;36.69;31.68;63.11;;
40103;Laerm;25814;48.550;9.108;2024-03-07T08:24:15;41.07;31.74;58.66;;
40103;Laerm;25814;48.550;9.108;2024-03-07T08:26:41;47.58;32.81;61.23;;
40103;Laerm;25814;48.550;9.108;2024-03-07T08:29:09;41.63;31.87;60.68;;
40103;Laerm;25814;48.550;9.108;2024-03-07T08:31:37;40.37;32.83;55.74;;
40103;Laerm;25814;48.550;9.108;2024-03-07T08:34:03;35.95;32.24;46.85;;
40103;Laerm;25814;48.550;9.108;2024-03-07T08:36:29;38.29;31.41;53.98;;
40103;Laerm;25814;48.550;9.108;2024-03-07T08:38:55;35.97;32.13;48.89;;
40103;Laerm;25814;48.550;9.108;2024-03-07T08:41:21;35.73;31.35;47.57;;
40103;Laerm;25814;48.550;9.108;2024-03-07T08:43:47;36.92;31.54;49.97;;
40103;Laerm;25814;48.550;9.108;2024-03-07T08:46:14;33.27;31.10;47.59;;
40103;Laerm;25814;48.550;9.108;2024-03-07T08:48:40;34.55;31.78;42.61;;
40103;Laerm;25814;48.550;9.108;2024-03-07T08:51:07;33.70;30.78;40.96;;
40103;Laerm;25814;48.550;9.108;2024-03-07T08:53:33;32.89;30.11;49.90;;
40103;Laerm;25814;48.550;9.108;2024-03-07T08:55:59;42.01;30.59;60.34;;
40103;Laerm;25814;48.550;9.108;2024-03-07T08:58:27;44.82;31.42;60.12;;
40103;Laerm;25814;48.550;9.108;2024-03-07T09:00:53;39.27;30.28;58.98;;
40103;Laerm;25814;48.550;9.108;2024-03-07T09:03:19;41.24;29.67;56.96;;
40103;Laerm;25814;48.550;9.108;2024-03-07T09:05:47;35.94;29.76;56.45;;
40103;Laerm;25814;48.550;9.108;2024-03-07T09:08:13;40.56;30.20;55.41;;
40103;Laerm;25814;48.550;9.108;2024-03-07T09:10:39;40.05;29.96;57.37;;
40103;Laerm;25814;48.550;9.108;2024-03-07T09:13:06;42.75;30.25;65.42;;
40103;Laerm;25814;48.550;9.108;2024-03-07T09:15:32;39.55;31.44;56.44;;
40103;Laerm;25814;48.550;9.108;2024-03-07T09:17:58;40.58;30.15;57.72;;
40103;Laerm;25814;48.550;9.108;2024-03-07T09:20:26;52.13;29.98;65.63;;
40103;Laerm;25814;48.550;9.108;2024-03-07T09:22:52;50.76;30.43;65.50;;
40103;Laerm;25814;48.550;9.108;2024-03-07T09:25:19;36.90;30.32;57.89;;
40103;Laerm;25814;48.550;9.108;2024-03-07T09:27:46;39.15;30.33;54.57;;
40103;Laerm;25814;48.550;9.108;2024-03-07T09:30:13;33.27;30.21;41.25;;
40103;Laerm;25814;48.550;9.108;2024-03-07T09:32:47;47.04;30.70;70.66;;
40103;Laerm;25814;48.550;9.108;2024-03-07T09:35:14;40.34;31.10;61.04;;
40103;Laerm;25814;48.550;9.108;2024-03-07T09:37:43;33.72;30.47;42.43;;
40103;Laerm;25814;48.550;9.108;2024-03-07T09:40:10;37.26;30.18;56.83;;
40103;Laerm;25814;48.550;9.108;2024-03-07T09:42:43;39.12;30.56;56.92;;
40103;Laerm;25814;48.550;9.108;2024-03-07T09:45:19;35.68;30.18;54.67;;
40103;Laerm;25814;48.550;9.108;2024-03-07T09:47:50;38.56;30.28;56.00;;
40103;Laerm;25814;48.550;9.108;2024-03-07T09:50:19;33.85;30.12;52.10;;
40103;Laerm;25814;48.550;9.108;2024-03-07T09:52:48;37.02;30.12;50.03;;
40103;Laerm;25814;48.550;9.108;2024-03-07T09:55:18;40.04;30.43;54.36;;
40103;Laerm;25814;48.550;9.108;2024-03-07T09:57:49;34.86;30.31;46.64;;
40103;Laerm;25814;48.550;9.108;2024-03-07T10:00:20;33.57;30.05;49.08;;
40103;Laerm;25814;48.550;9.108;2024-03-07T10:02:58;34.63;29.78;48.58;;
40103;Laerm;25814;48.550;9.108;2024-03-07T10:05:27;39.82;30.63;53.63;;
40103;Laerm;25814;48.550;9.108;2024-03-07T10:07:55;36.18;30.04;51.45;;
40103;Laerm;25814;48.550;9.108;2024-03-07T10:10:21;37.75;29.92;54.29;;
40103;Laerm;25814;48.550;9.108;2024-03-07T10:12:49;32.69;29.71;55.01;;
40103;Laerm;25814;48.550;9.108;2024-03-07T10:15:16;34.09;29.88;43.11;;
40103;Laerm;25814;48.550;9.108;2024-03-07T10:17:44;35.69;30.42;48.19;;
40103;Laerm;25814;48.550;9.108;2024-03-07T10:20:12;40.35;29.93;66.43;;
40103;Laerm;25814;48.550;9.108;2024-03-07T10:22:41;36.30;29.91;46.95;;
40103;Laerm;25814;48.550;9.108;2024-03-07T10:25:08;36.27;29.55;57.31;;
40103;Laerm;25814;48.550;9.108;2024-03-07T10:27:37;36.53;29.90;52.75;;
40103;Laerm;25814;48.550;9.108;2024-03-07T10:30:04;45.15;29.76;66.29;;
40103;Laerm;25814;48.550;9.108;2024-03-07T10:32:33;37.97;30.65;59.06;;
40103;Laerm;25814;48.550;9.108;2024-03-07T10:34:59;36.38;30.45;61.66;;
40103;Laerm;25814;48.550;9.108;2024-03-07T10:37:25;44.41;30.64;58.19;;
40103;Laerm;25814;48.550;9.108;2024-03-07T10:39:51;33.38;30.76;45.19;;
40103;Laerm;25814;48.550;9.108;2024-03-07T10:42:19;39.95;30.71;61.79;;
40103;Laerm;25814;48.550;9.108;2024-03-07T10:45:00;40.81;30.31;56.31;;
40103;Laerm;25814;48.550;9.108;2024-03-07T10:47:29;41.91;30.26;62.13;;
40103;Laerm;25814;48.550;9.108;2024-03-07T10:53:03;33.15;29.69;48.34;;
40103;Laerm;25814;48.550;9.108;2024-03-07T11:04:31;43.42;30.35;55.07;;
40103;Laerm;25814;48.550;9.108;2024-03-07T11:06:59;36.63;30.76;46.39;;
40103;Laerm;25814;48.550;9.108;2024-03-07T11:09:26;32.71;30.43;42.29;;
40103;Laerm;25814;48.550;9.108;2024-03-07T11:12:00;36.89;30.56;50.74;;
40103;Laerm;25814;48.550;9.108;2024-03-07T11:14:33;42.84;30.59;56.64;;
40103;Laerm;25814;48.550;9.108;2024-03-07T11:17:02;33.39;30.27;46.65;;
40103;Laerm;25814;48.550;9.108;2024-03-07T11:19:31;33.02;30.17;44.03;;
40103;Laerm;25814;48.550;9.108;2024-03-07T11:22:02;34.80;29.39;47.38;;
40103;Laerm;25814;48.550;9.108;2024-03-07T11:24:31;34.51;29.74;48.34;;
40103;Laerm;25814;48.550;9.108;2024-03-07T11:27:04;33.53;30.97;47.36;;
40103;Laerm;25814;48.550;9.108;2024-03-07T11:29:49;41.47;29.90;51.33;;
40103;Laerm;25814;48.550;9.108;2024-03-07T11:32:19;40.69;30.29;56.75;;
40103;Laerm;25814;48.550;9.108;2024-03-07T11:34:49;44.58;30.46;63.46;;
40103;Laerm;25814;48.550;9.108;2024-03-07T11:37:37;40.99;29.85;63.13;;
40103;Laerm;25814;48.550;9.108;2024-03-07T11:40:07;39.66;29.91;54.74;;
40103;Laerm;25814;48.550;9.108;2024-03-07T11:42:34;41.83;29.67;62.03;;
40103;Laerm;25814;48.550;9.108;2024-03-07T11:45:02;42.59;29.95;61.32;;
40103;Laerm;25814;48.550;9.108;2024-03-07T11:47:38;45.63;30.84;57.93;;
40103;Laerm;25814;48.550;9.108;2024-03-07T11:50:06;38.62;30.91;53.69;;
40103;Laerm;25814;48.550;9.108;2024-03-07T11:52:38;38.64;30.94;62.55;;
40103;Laerm;25814;48.550;9.108;2024-03-07T11:55:08;35.53;30.08;56.11;;
40103;Laerm;25814;48.550;9.108;2024-03-07T11:57:34;32.64;29.75;44.08;;
40103;Laerm;25814;48.550;9.108;2024-03-07T12:00:02;36.53;30.22;57.00;;
40103;Laerm;25814;48.550;9.108;2024-03-07T12:02:37;36.84;30.48;56.94;;
40103;Laerm;25814;48.550;9.108;2024-03-07T12:05:07;40.77;30.55;56.65;;
40103;Laerm;25814;48.550;9.108;2024-03-07T12:07:33;36.91;30.68;59.01;;
40103;Laerm;25814;48.550;9.108;2024-03-07T12:10:02;31.98;30.07;37.91;;
40103;Laerm;25814;48.550;9.108;2024-03-07T12:12:32;34.94;31.71;46.08;;
40103;Laerm;25814;48.550;9.108;2024-03-07T12:15:05;32.10;30.34;45.39;;
40103;Laerm;25814;48.550;9.108;2024-03-07T12:17:37;33.15;30.12;43.21;;
40103;Laerm;25814;48.550;9.108;2024-03-07T12:20:06;50.83;31.93;64.91;;
40103;Laerm;25814;48.550;9.108;2024-03-07T12:23:00;39.21;30.93;51.34;;
40103;Laerm;25814;48.550;9.108;2024-03-07T12:25:31;34.71;31.19;52.82;;
40103;Laerm;25814;48.550;9.108;2024-03-07T12:28:08;46.29;30.34;72.73;;
40103;Laerm;25814;48.550;9.108;2024-03-07T12:30:56;41.41;30.28;55.56;;
40103;Laerm;25814;48.550;9.108;2024-03-07T12:33:23;41.55;29.70;60.98;;
40103;Laerm;25814;48.550;9.108;2024-03-07T12:35:54;45.38;30.08;67.71;;
40103;Laerm;25814;48.550;9.108;2024-03-07T12:38:21;41.97;29.97;60.93;;
40103;Laerm;25814;48.550;9.108;2024-03-07T12:41:09;40.46;30.14;57.38;;
40103;Laerm;25814;48.550;9.108;2024-03-07T12:43:42;44.11;30.82;62.62;;
40103;Laerm;25814;48.550;9.108;2024-03-07T12:46:11;40.69;30.05;57.84;;
40103;Laerm;25814;48.550;9.108;2024-03-07T12:48:40;39.59;30.44;53.98;;
40103;Laerm;25814;48.550;9.108;2024-03-07T12:51:06;41.09;29.99;59.64;;
40103;Laerm;25814;48.550;9.108;2024-03-07T12:53:33;39.16;29.78;56.44;;
40103;Laerm;25814;48.550;9.108;2024-03-07T12:56:00;36.92;29.95;50.59;;
40103;Laerm;25814;48.550;9.108;2024-03-07T12:58:28;44.57;30.24;66.30;;
40103;Laerm;25814;48.550;9.108;2024-03-07T13:00:56;37.90;31.39;52.81;;
40103;Laerm;25814;48.550;9.108;2024-03-07T13:03:24;38.09;30.47;53.48;;
40103;Laerm;25814;48.550;9.108;2024-03-07T13:05:56;35.15;30.82;51.64;;
40103;Laerm;25814;48.550;9.108;2024-03-07T13:08:24;39.53;30.97;59.10;;
40103;Laerm;25814;48.550;9.108;2024-03-07T13:10:51;40.26;30.67;56.98;;
40103;Laerm;25814;48.550;9.108;2024-03-07T13:13:21;39.90;30.63;54.16;;
40103;Laerm;25814;48.550;9.108;2024-03-07T13:15:48;42.50;31.82;56.74;;
40103;Laerm;25814;48.550;9.108;2024-03-07T13:18:14;44.01;31.38;61.34;;
40103;Laerm;25814;48.550;9.108;2024-03-07T13:20:40;42.81;31.45;60.52;;
40103;Laerm;25814;48.550;9.108;2024-03-07T13:23:08;44.48;31.21;60.70;;
40103;Laerm;25814;48.550;9.108;2024-03-07T13:25:35;46.16;31.02;62.59;;
40103;Laerm;25814;48.550;9.108;2024-03-07T13:28:12;41.47;32.39;55.40;;
40103;Laerm;25814;48.550;9.108;2024-03-07T13:30:49;37.96;30.46;52.06;;
40103;Laerm;25814;48.550;9.108;2024-03-07T13:33:16;36.76;31.28;60.35;;
40103;Laerm;25814;48.550;9.108;2024-03-07T13:35:43;33.13;30.98;41.84;;
40103;Laerm;25814;48.550;9.108;2024-03-07T13:38:09;36.48;30.84;48.38;;
40103;Laerm;25814;48.550;9.108;2024-03-07T13:40:36;39.31;30.97;55.02;;
40103;Laerm;25814;48.550;9.108;2024-03-07T13:43:05;44.56;31.13;58.79;;
40103;Laerm;25814;48.550;9.108;2024-03-07T13:45:36;36.82;30.89;56.19;;
40103;Laerm;25814;48.550;9.108;2024-03-07T13:48:09;33.24;31.09;42.15;;
40103;Laerm;25814;48.550;9.108;2024-03-07T13:50:39;34.34;31.11;40.47;;
40103;Laerm;25814;48.550;9.108;2024-03-07T13:53:09;35.50;32.38;50.79;;
40103;Laerm;25814;48.550;9.108;2024-03-07T14:05:11;41.11;31.80;59.56;;
40103;Laerm;25814;48.550;9.108;2024-03-07T14:14:21;32.77;30.32;42.75;;
40103;Laerm;25814;48.550;9.108;2024-03-07T14:32:19;46.67;30.56;65.92;;
40103;Laerm;25814;48.550;9.108;2024-03-07T14:35:25;34.48;30.79;45.37;;
40103;Laerm;25814;48.550;9.108;2024-03-07T14:38:27;37.11;30.92;50.98;;